Aérodrome :
LOGIN :

S'inscrire | Disclaimer

   EN    FR    IT 

 










Légende :    VFR   VFR Marginal   IFR   IFR Intensif   IFR Très Intensif
Visi : 
Plafond : 
>= 8 km
>= 3000ft
5 à 8 km
1000 à 3000 ft
1500m à 5 km
500 à 1000 ft
800 à 1500m
200 à 500 ft
< 800m
< 200 ft
Symboles :   Orages  Brouillard  Fortes neiges  Fortes précipitations  Vent > 20 kt
SIGMETs :   Divers  Orages  Givrage  Turbulence  Onde Orograph.  Cendres Volcan.







- Altitude de l'aérodrome : 219 ft
- Code IATA : DNR
- Voir les cartes d'approche


LFRD - Dinard

DERNIER METAR :
  • 161930Z AUTO 31010KT 9999 FEW028 18/15 Q1017 NOSIG

METARs EXPIRÉS :
  • 161900Z AUTO 31010KT 9999 SCT026 BKN082 18/15 Q1016 NOSIG
  • 161830Z AUTO 32011KT 9999 FEW011 SCT054 18/16 Q1016 BECMG BKN030
  • 161800Z AUTO 30011KT 9999 BKN009 BKN013 BKN028 19/16 Q1016 BECMG NSC
  • 161730Z AUTO 33011KT CAVOK 19/16 Q1016 NOSIG
  • 161700Z AUTO 33010KT CAVOK 20/16 Q1016 NOSIG

TAF AMD TAF LFRD
Valide du 16 à 18h jusqu'au 17 à 18h UTC


161813Z 1618/1718 33010KT 9999 BKN030
TEMPO 1618/1620 BKN009
BECMG 1700/1702 27005KT
BECMG 1709/1712 34010KT
ATIS : +33 2 99 16 81 50
Pas de NOTAMs connus pour ce terrain.
1 SIGMET publié pour la FIR Brest (LFRR) :
 
Orages noyés dans la masse
LFRR SIGMET 4 VALID 161800/162000 LFPW
LFRR BREST FIR/UIR EMBD TS FCST WI N4745 W00015 - N4630 W00015 - N4730 W00045 - N4745 W00015 TOP FL330 MOV E 15KT NC=



MET'MAP, la Météo Aéronautique d'un coup d'oeil ! - Copyright ORBIFLY Décembre 2007 - Disclaimer

ORBIFLY MET'MAP TEAM :

Programmation & Développement : Alexandra Zaïnal
Conception & Développement : Baudouin d'Aumeries
Co-Programmation & Développement : Marc-Olivier Méhu
Soutien technique & logistique : Manuel Goepfert

Contact : metmap@orbifly.com




SOURCES & CREDITS :

   NOAA